Time;durP1;ratioP1;P1;durP2;ratioP2;P2;SDS_P1;SDS_P2;PMS_P1;PMS_P2;Temp;Humidity;BMP_temperature;BMP_pressure;BME280_temperature;BME280_humidity;BME280_pressure;Samples;Min_cycle;Max_cycle;Signal;HPM_P1;HPM_P2
2023/06/29 00:01:42;;;;;;;28.88;17.70;;;;;;;;;;5077318;28;20135;-51
2023/06/29 00:04:09;;;;;;;31.13;19.42;;;;;;;;;;5077263;28;20110;-51
2023/06/29 00:06:38;;;;;;;37.25;20.52;;;;;;;;;;5077831;28;20044;-51
2023/06/29 00:09:04;;;;;;;34.03;20.85;;;;;;;;;;5078114;28;20028;-51
2023/06/29 00:11:31;;;;;;;34.08;21.33;;;;;;;;;;5078241;28;20459;-53
2023/06/29 00:13:57;;;;;;;32.05;20.15;;;;;;;;;;5077653;28;20056;-51
2023/06/29 00:16:23;;;;;;;32.10;20.15;;;;;;;;;;5078182;28;20532;-51
2023/06/29 00:18:54;;;;;;;32.40;18.25;;;;;;;;;;5077092;28;20484;-51
2023/06/29 00:21:20;;;;;;;30.35;19.23;;;;;;;;;;5077451;28;20122;-51
2023/06/29 00:23:46;;;;;;;30.58;19.50;;;;;;;;;;5073322;28;20060;-51
2023/06/29 00:26:13;;;;;;;33.20;19.60;;;;;;;;;;5077488;27;20037;-51
2023/06/29 00:28:39;;;;;;;31.13;19.90;;;;;;;;;;5076588;28;20498;-51
2023/06/29 00:31:05;;;;;;;31.38;19.83;;;;;;;;;;5077302;28;20032;-51
2023/06/29 00:33:32;;;;;;;31.73;19.42;;;;;;;;;;5077387;28;20102;-51
2023/06/29 00:35:58;;;;;;;31.13;18.13;;;;;;;;;;5077151;28;20567;-51
2023/06/29 00:38:24;;;;;;;30.05;19.13;;;;;;;;;;5077807;28;20044;-51
2023/06/29 00:40:50;;;;;;;32.53;19.95;;;;;;;;;;5077447;28;20040;-51
2023/06/29 00:43:17;;;;;;;30.20;19.05;;;;;;;;;;5067945;28;20527;-51
2023/06/29 00:45:44;;;;;;;31.17;18.83;;;;;;;;;;5078355;28;20447;-51
2023/06/29 00:48:10;;;;;;;30.80;18.23;;;;;;;;;;5076617;28;20515;-50
2023/06/29 00:50:36;;;;;;;28.15;18.75;;;;;;;;;;5077482;28;20044;-51
2023/06/29 00:53:02;;;;;;;29.75;19.60;;;;;;;;;;5076502;28;20056;-51
2023/06/29 00:55:28;;;;;;;33.05;19.38;;;;;;;;;;5077859;28;20041;-51
2023/06/29 00:57:55;;;;;;;30.85;19.17;;;;;;;;;;5076901;28;20090;-51
2023/06/29 01:00:21;;;;;;;33.08;20.13;;;;;;;;;;5077115;28;20048;-51
2023/06/29 01:02:48;;;;;;;30.25;19.13;;;;;;;;;;5078054;28;20148;-51
2023/06/29 01:05:15;;;;;;;30.48;19.55;;;;;;;;;;5092879;27;20036;-51
2023/06/29 01:07:41;;;;;;;32.33;19.55;;;;;;;;;;5077458;28;20543;-51
2023/06/29 01:10:09;;;;;;;31.42;20.27;;;;;;;;;;5075902;28;20045;-51
2023/06/29 01:12:35;;;;;;;33.47;17.77;;;;;;;;;;5076399;28;20036;-51
2023/06/29 01:15:02;;;;;;;31.80;19.77;;;;;;;;;;5075601;28;20039;-51
2023/06/29 01:17:30;;;;;;;31.08;19.85;;;;;;;;;;5073480;28;20436;-51
2023/06/29 01:19:57;;;;;;;36.72;20.88;;;;;;;;;;5075036;28;20044;-51
2023/06/29 01:22:31;;;;;;;35.40;19.88;;;;;;;;;;5075086;28;20043;-51
2023/06/29 01:24:57;;;;;;;34.17;21.23;;;;;;;;;;5076702;28;20056;-51
2023/06/29 01:27:24;;;;;;;33.33;21.95;;;;;;;;;;5077630;28;20037;-51
2023/06/29 01:29:53;;;;;;;30.55;21.23;;;;;;;;;;5077645;28;20051;-51
2023/06/29 01:32:19;;;;;;;29.67;19.67;;;;;;;;;;5069707;28;20036;-50
2023/06/29 01:34:45;;;;;;;34.35;23.38;;;;;;;;;;5076867;28;20049;-51
2023/06/29 01:37:16;;;;;;;31.98;20.23;;;;;;;;;;5077362;28;20036;-51
2023/06/29 01:39:46;;;;;;;34.05;21.35;;;;;;;;;;5076862;28;20552;-51
2023/06/29 01:42:13;;;;;;;32.60;20.48;;;;;;;;;;5077021;28;20048;-51
2023/06/29 01:44:39;;;;;;;31.67;20.08;;;;;;;;;;5077584;28;20127;-51
2023/06/29 01:47:07;;;;;;;32.90;21.67;;;;;;;;;;5077412;28;20596;-51
2023/06/29 01:49:34;;;;;;;35.47;21.17;;;;;;;;;;5076904;28;21040;-51
2023/06/29 01:52:00;;;;;;;31.83;21.52;;;;;;;;;;5076447;28;20055;-51
2023/06/29 01:54:26;;;;;;;32.28;19.55;;;;;;;;;;5076031;28;20041;-51
2023/06/29 01:56:52;;;;;;;32.55;21.35;;;;;;;;;;5076880;28;20041;-51
2023/06/29 01:59:18;;;;;;;33.05;21.55;;;;;;;;;;5075801;28;20040;-51
2023/06/29 02:01:44;;;;;;;33.60;20.73;;;;;;;;;;5076485;28;20115;-51
2023/06/29 02:04:11;;;;;;;30.48;19.77;;;;;;;;;;5076794;28;20052;-51
2023/06/29 02:06:37;;;;;;;34.80;20.08;;;;;;;;;;5076535;28;20095;-51
2023/06/29 02:09:03;;;;;;;32.20;19.38;;;;;;;;;;5076190;28;20044;-51
2023/06/29 02:11:29;;;;;;;33.30;22.23;;;;;;;;;;5076268;28;20040;-51
2023/06/29 02:13:55;;;;;;;29.05;19.88;;;;;;;;;;5076407;28;20067;-51
2023/06/29 02:16:21;;;;;;;37.90;20.15;;;;;;;;;;5076372;28;20041;-51
2023/06/29 02:18:47;;;;;;;31.45;18.88;;;;;;;;;;5076167;28;20088;-51
2023/06/29 02:21:13;;;;;;;33.35;19.70;;;;;;;;;;5073774;28;20087;-51
2023/06/29 02:23:39;;;;;;;33.20;20.98;;;;;;;;;;5078390;28;20126;-51
2023/06/29 02:26:05;;;;;;;29.85;18.58;;;;;;;;;;5079875;28;20036;-51
2023/06/29 02:28:32;;;;;;;29.77;19.77;;;;;;;;;;5079494;28;20119;-51
2023/06/29 02:30:58;;;;;;;30.10;19.40;;;;;;;;;;5080140;28;20135;-51
2023/06/29 02:33:24;;;;;;;34.10;20.30;;;;;;;;;;5079801;28;20606;-51
2023/06/29 02:35:50;;;;;;;34.47;21.33;;;;;;;;;;5078707;28;20089;-51
2023/06/29 02:38:16;;;;;;;30.77;21.20;;;;;;;;;;5078983;28;20052;-50
2023/06/29 02:40:42;;;;;;;37.75;21.88;;;;;;;;;;5079271;28;20044;-51
2023/06/29 02:43:08;;;;;;;31.00;19.52;;;;;;;;;;5078824;28;20051;-51
2023/06/29 02:45:34;;;;;;;34.10;20.02;;;;;;;;;;5094587;27;20124;-51
2023/06/29 02:48:00;;;;;;;35.40;22.70;;;;;;;;;;5079411;28;20055;-51
2023/06/29 02:50:26;;;;;;;40.42;24.23;;;;;;;;;;5079361;28;20041;-51
2023/06/29 02:52:52;;;;;;;36.33;22.70;;;;;;;;;;5079372;28;20545;-51
2023/06/29 02:55:20;;;;;;;35.25;21.35;;;;;;;;;;5079265;28;20095;-51
2023/06/29 02:57:46;;;;;;;32.88;22.08;;;;;;;;;;5080101;28;20583;-51
2023/06/29 03:00:12;;;;;;;37.05;22.23;;;;;;;;;;5094040;27;20052;-51
2023/06/29 03:02:38;;;;;;;40.75;23.25;;;;;;;;;;5080048;28;20134;-51
2023/06/29 03:05:04;;;;;;;39.75;21.90;;;;;;;;;;5078687;28;20044;-51
2023/06/29 03:07:31;;;;;;;32.85;20.70;;;;;;;;;;5080362;28;20036;-51
2023/06/29 03:09:57;;;;;;;31.45;20.80;;;;;;;;;;5079299;28;20368;-51
2023/06/29 03:12:23;;;;;;;36.78;21.02;;;;;;;;;;5078550;28;20044;-51
2023/06/29 03:14:49;;;;;;;32.60;21.27;;;;;;;;;;5078982;28;20670;-51
2023/06/29 03:17:15;;;;;;;35.67;22.10;;;;;;;;;;5079302;28;20110;-51
2023/06/29 03:19:41;;;;;;;38.67;23.27;;;;;;;;;;5079012;28;20119;-51
2023/06/29 03:22:07;;;;;;;35.83;21.98;;;;;;;;;;5078889;28;20044;-51
2023/06/29 03:24:33;;;;;;;34.72;20.63;;;;;;;;;;5078501;28;20143;-51
2023/06/29 03:26:59;;;;;;;34.55;20.58;;;;;;;;;;5078116;28;20060;-51
2023/06/29 03:29:26;;;;;;;36.85;21.77;;;;;;;;;;5079086;28;20125;-51
2023/06/29 03:31:52;;;;;;;37.08;22.13;;;;;;;;;;5079065;28;20050;-51
2023/06/29 03:34:18;;;;;;;32.20;19.88;;;;;;;;;;5070079;28;20658;-51
2023/06/29 03:36:44;;;;;;;33.72;21.25;;;;;;;;;;5078446;28;20566;-51
2023/06/29 03:39:10;;;;;;;35.92;22.50;;;;;;;;;;5078870;28;20036;-51
2023/06/29 03:41:36;;;;;;;37.33;22.25;;;;;;;;;;5078556;28;20041;-52
2023/06/29 03:44:02;;;;;;;37.50;22.95;;;;;;;;;;5077289;28;20044;-51
2023/06/29 03:46:28;;;;;;;32.63;19.23;;;;;;;;;;5078591;28;20045;-51
2023/06/29 03:48:54;;;;;;;37.90;21.73;;;;;;;;;;5078688;28;20036;-52
2023/06/29 03:51:20;;;;;;;33.47;20.08;;;;;;;;;;5079165;28;20466;-51
2023/06/29 03:53:46;;;;;;;34.13;20.10;;;;;;;;;;5077386;28;20373;-52
2023/06/29 03:56:12;;;;;;;34.65;21.58;;;;;;;;;;5077974;28;20043;-51
2023/06/29 03:58:38;;;;;;;30.77;20.25;;;;;;;;;;5077977;28;20045;-51
2023/06/29 04:01:05;;;;;;;38.00;22.00;;;;;;;;;;5078274;28;20118;-52
2023/06/29 04:03:31;;;;;;;35.40;21.00;;;;;;;;;;5078250;28;20045;-51
2023/06/29 04:05:57;;;;;;;32.78;20.55;;;;;;;;;;5078672;28;20787;-52
2023/06/29 04:08:23;;;;;;;33.35;22.15;;;;;;;;;;5077755;28;20476;-52
2023/06/29 04:10:49;;;;;;;34.47;19.67;;;;;;;;;;5078193;28;20109;-51
2023/06/29 04:13:15;;;;;;;31.85;19.08;;;;;;;;;;5076693;28;20041;-52
2023/06/29 04:15:41;;;;;;;34.58;21.63;;;;;;;;;;5077614;28;20040;-52
2023/06/29 04:18:07;;;;;;;34.47;20.92;;;;;;;;;;5077252;28;20099;-52
2023/06/29 04:20:34;;;;;;;35.22;18.80;;;;;;;;;;5078391;28;20047;-52
2023/06/29 04:23:00;;;;;;;36.20;21.17;;;;;;;;;;5077602;28;20523;-52
2023/06/29 04:25:26;;;;;;;29.25;18.98;;;;;;;;;;5077639;28;20476;-52
2023/06/29 04:27:52;;;;;;;35.15;20.95;;;;;;;;;;5076460;28;20035;-52
2023/06/29 04:30:18;;;;;;;30.58;20.05;;;;;;;;;;5077926;28;20051;-51
2023/06/29 04:32:46;;;;;;;33.10;20.05;;;;;;;;;;5077025;28;20028;-51
2023/06/29 04:35:13;;;;;;;35.88;22.33;;;;;;;;;;5077892;28;20044;-52
2023/06/29 04:37:42;;;;;;;31.65;20.30;;;;;;;;;;5077653;28;20045;-52
2023/06/29 04:40:14;;;;;;;31.35;21.15;;;;;;;;;;5078415;28;20040;-52
2023/06/29 04:42:48;;;;;;;35.17;21.45;;;;;;;;;;5077417;28;20123;-51
2023/06/29 04:45:19;;;;;;;35.38;19.33;;;;;;;;;;5077426;28;20106;-51
2023/06/29 04:47:45;;;;;;;;;;;;;;;;;;5090706;27;20043;-51
2023/06/29 04:50:12;;;;;;;33.17;19.88;;;;;;;;;;5093193;27;19962;-51
2023/06/29 04:52:38;;;;;;;33.55;21.23;;;;;;;;;;5078054;28;20037;-52
2023/06/29 04:55:04;;;;;;;33.75;21.05;;;;;;;;;;5077618;28;20045;-51
2023/06/29 04:57:31;;;;;;;33.60;20.88;;;;;;;;;;5077684;28;20790;-51
2023/06/29 04:59:57;;;;;;;34.83;21.75;;;;;;;;;;5069872;28;20047;-51
2023/06/29 05:02:23;;;;;;;35.67;23.27;;;;;;;;;;5092976;27;20438;-51
2023/06/29 05:04:50;;;;;;;38.55;23.38;;;;;;;;;;5078224;28;20048;-51
2023/06/29 05:07:16;;;;;;;37.60;22.55;;;;;;;;;;5077304;28;20040;-52
2023/06/29 05:09:42;;;;;;;36.58;22.00;;;;;;;;;;5069109;28;20040;-51
2023/06/29 05:12:09;;;;;;;38.13;23.15;;;;;;;;;;5077308;28;20060;-51
2023/06/29 05:14:35;;;;;;;29.63;16.95;;;;;;;;;;5076960;28;20044;-51
2023/06/29 05:17:01;;;;;;;35.45;22.00;;;;;;;;;;5076955;28;20119;-51
2023/06/29 05:19:28;;;;;;;37.60;22.92;;;;;;;;;;5076634;28;20123;-51
2023/06/29 05:21:54;;;;;;;40.80;24.45;;;;;;;;;;5077292;28;20048;-52
2023/06/29 05:24:21;;;;;;;38.08;25.40;;;;;;;;;;5076124;28;20518;-51
2023/06/29 05:26:47;;;;;;;39.15;23.42;;;;;;;;;;5076845;28;20562;-51
2023/06/29 05:29:13;;;;;;;38.60;21.23;;;;;;;;;;5077236;28;20045;-51
2023/06/29 05:31:39;;;;;;;38.03;23.67;;;;;;;;;;5076929;28;20040;-51
2023/06/29 05:34:05;;;;;;;44.35;25.30;;;;;;;;;;5076643;28;20492;-51
2023/06/29 05:36:31;;;;;;;37.20;24.80;;;;;;;;;;5076030;28;20040;-52
2023/06/29 05:38:57;;;;;;;41.42;25.48;;;;;;;;;;5077267;28;20597;-53
2023/06/29 05:41:24;;;;;;;38.90;24.55;;;;;;;;;;5075690;28;20522;-51
2023/06/29 05:43:50;;;;;;;38.10;24.35;;;;;;;;;;5076322;28;20041;-51
2023/06/29 05:46:16;;;;;;;35.00;22.65;;;;;;;;;;5075707;27;20126;-51
2023/06/29 05:48:42;;;;;;;40.25;24.63;;;;;;;;;;5077227;28;20040;-52
2023/06/29 05:51:08;;;;;;;40.47;24.55;;;;;;;;;;5075351;28;20650;-51
2023/06/29 05:53:34;;;;;;;44.47;26.75;;;;;;;;;;5076887;28;20037;-51
2023/06/29 05:56:00;;;;;;;44.55;22.08;;;;;;;;;;5075954;28;20101;-52
2023/06/29 05:58:26;;;;;;;36.42;23.33;;;;;;;;;;5093165;27;20089;-52
2023/06/29 06:00:52;;;;;;;41.50;25.60;;;;;;;;;;5095176;27;20037;-52
2023/06/29 06:03:20;;;;;;;42.80;22.83;;;;;;;;;;5080071;27;20076;-51
2023/06/29 06:05:46;;;;;;;37.97;24.98;;;;;;;;;;5079817;28;20127;-51
2023/06/29 06:08:12;;;;;;;38.28;23.95;;;;;;;;;;5079888;28;20119;-51
2023/06/29 06:10:38;;;;;;;37.65;23.48;;;;;;;;;;5080463;28;20068;-51
2023/06/29 06:13:05;;;;;;;39.10;24.85;;;;;;;;;;5079942;28;20753;-52
2023/06/29 06:15:31;;;;;;;33.50;22.60;;;;;;;;;;5080324;28;20579;-51
2023/06/29 06:17:57;;;;;;;35.92;23.65;;;;;;;;;;5080595;28;20060;-51
2023/06/29 06:20:23;;;;;;;44.45;25.65;;;;;;;;;;5079544;28;20067;-52
2023/06/29 06:22:49;;;;;;;38.58;24.75;;;;;;;;;;5079917;28;20053;-52
2023/06/29 06:25:17;;;;;;;37.17;21.73;;;;;;;;;;5079813;28;20125;-52
2023/06/29 06:27:44;;;;;;;40.47;23.33;;;;;;;;;;5080687;28;20075;-52
2023/06/29 06:30:10;;;;;;;40.03;24.98;;;;;;;;;;5079478;27;20156;-52
2023/06/29 06:32:41;;;;;;;41.40;23.67;;;;;;;;;;5079743;28;20052;-52
2023/06/29 06:35:07;;;;;;;35.88;21.80;;;;;;;;;;5079770;28;20032;-51
2023/06/29 06:37:34;;;;;;;44.25;23.75;;;;;;;;;;5079137;28;20036;-51
2023/06/29 06:40:00;;;;;;;41.20;24.13;;;;;;;;;;5080225;28;20046;-51
2023/06/29 06:42:26;;;;;;;35.17;22.27;;;;;;;;;;5078985;28;20041;-52
2023/06/29 06:44:54;;;;;;;39.45;23.73;;;;;;;;;;5095090;27;20594;-51
2023/06/29 06:47:20;;;;;;;46.05;25.60;;;;;;;;;;5078579;28;20090;-52
2023/06/29 06:49:47;;;;;;;39.55;24.25;;;;;;;;;;5079807;28;20048;-51
2023/06/29 06:52:13;;;;;;;41.05;23.75;;;;;;;;;;5078871;28;20041;-51
2023/06/29 06:54:39;;;;;;;39.88;22.45;;;;;;;;;;5079794;28;20106;-52
2023/06/29 06:57:05;;;;;;;39.90;23.27;;;;;;;;;;5079062;28;20040;-53
2023/06/29 06:59:31;;;;;;;37.72;22.35;;;;;;;;;;5080183;28;20045;-51
2023/06/29 07:01:58;;;;;;;38.75;24.23;;;;;;;;;;5078867;28;20053;-52
2023/06/29 07:04:24;;;;;;;41.45;23.15;;;;;;;;;;5079374;28;20037;-52
2023/06/29 07:06:50;;;;;;;44.13;25.05;;;;;;;;;;5079332;28;20047;-52
2023/06/29 07:09:16;;;;;;;42.20;26.00;;;;;;;;;;5079021;28;20037;-52
2023/06/29 07:11:42;;;;;;;39.90;23.90;;;;;;;;;;5078483;28;20032;-51
2023/06/29 07:14:08;;;;;;;47.13;26.25;;;;;;;;;;5094752;27;20048;-52
2023/06/29 07:16:34;;;;;;;39.55;22.92;;;;;;;;;;5078898;28;20032;-52
2023/06/29 07:19:11;;;;;;;34.65;22.88;;;;;;;;;;5079541;28;20044;-52
2023/06/29 07:21:37;;;;;;;40.38;23.42;;;;;;;;;;5079186;28;20052;-52
2023/06/29 07:24:03;;;;;;;36.55;21.80;;;;;;;;;;5070416;28;20044;-52
2023/06/29 07:26:29;;;;;;;34.13;21.67;;;;;;;;;;5078283;28;20095;-51
2023/06/29 07:28:55;;;;;;;34.08;21.17;;;;;;;;;;5079321;28;20045;-51
2023/06/29 07:31:25;;;;;;;37.13;19.98;;;;;;;;;;5078570;28;20098;-51
2023/06/29 07:33:52;;;;;;;38.25;23.02;;;;;;;;;;5079165;28;20047;-51
2023/06/29 07:36:18;;;;;;;37.17;22.70;;;;;;;;;;5078667;28;20052;-51
2023/06/29 07:38:44;;;;;;;39.17;23.88;;;;;;;;;;5078661;28;20045;-51
2023/06/29 07:41:10;;;;;;;35.58;20.42;;;;;;;;;;5078116;28;20512;-52
2023/06/29 07:43:37;;;;;;;35.78;22.25;;;;;;;;;;5079267;28;20868;-51
2023/06/29 07:46:03;;;;;;;39.55;22.83;;;;;;;;;;5078289;28;20044;-52
2023/06/29 07:48:29;;;;;;;36.85;23.90;;;;;;;;;;5079675;28;20044;-52
2023/06/29 07:50:55;;;;;;;34.75;21.88;;;;;;;;;;5079046;28;20040;-51
2023/06/29 07:53:21;;;;;;;38.90;22.83;;;;;;;;;;5078297;28;20049;-51
2023/06/29 07:55:47;;;;;;;31.40;21.98;;;;;;;;;;5078615;28;20663;-52
2023/06/29 07:58:13;;;;;;;36.97;22.98;;;;;;;;;;5077718;28;20036;-52
2023/06/29 08:00:39;;;;;;;45.90;24.90;;;;;;;;;;5078317;28;20049;-52
2023/06/29 08:03:05;;;;;;;39.13;21.33;;;;;;;;;;5077997;28;20045;-52
2023/06/29 08:05:32;;;;;;;32.05;20.58;;;;;;;;;;5078650;28;20078;-52
2023/06/29 08:07:59;;;;;;;38.85;23.75;;;;;;;;;;5078186;28;20601;-51
2023/06/29 08:10:25;;;;;;;46.22;24.23;;;;;;;;;;5078462;28;20044;-51
2023/06/29 08:12:52;;;;;;;35.45;22.75;;;;;;;;;;5077366;28;20049;-52
2023/06/29 08:15:18;;;;;;;33.03;21.02;;;;;;;;;;5077814;28;20468;-52
2023/06/29 08:17:44;;;;;;;32.47;19.92;;;;;;;;;;5078099;28;20579;-52
2023/06/29 08:20:12;;;;;;;37.83;20.25;;;;;;;;;;5077861;28;20040;-52
2023/06/29 08:22:38;;;;;;;34.55;19.98;;;;;;;;;;5077475;28;20032;-52
2023/06/29 08:25:05;;;;;;;36.45;21.33;;;;;;;;;;5075981;28;20044;-51
2023/06/29 08:27:31;;;;;;;33.60;20.02;;;;;;;;;;5078191;28;20520;-51
2023/06/29 08:29:57;;;;;;;42.42;23.17;;;;;;;;;;5076947;28;20044;-52
2023/06/29 08:32:23;;;;;;;36.88;23.20;;;;;;;;;;5093156;28;20037;-52
2023/06/29 08:34:50;;;;;;;32.13;20.95;;;;;;;;;;5077519;28;20051;-51
2023/06/29 08:37:16;;;;;;;34.60;21.33;;;;;;;;;;5077950;28;20479;-52
2023/06/29 08:39:42;;;;;;;33.30;19.73;;;;;;;;;;5077570;28;20163;-52
2023/06/29 08:42:08;;;;;;;29.50;19.30;;;;;;;;;;5077759;28;20693;-52
2023/06/29 08:44:34;;;;;;;34.25;20.65;;;;;;;;;;5076842;28;20048;-52
2023/06/29 08:47:01;;;;;;;33.17;20.77;;;;;;;;;;5076380;28;20523;-52
2023/06/29 08:49:28;;;;;;;29.17;21.55;;;;;;;;;;5076222;28;20258;-52
2023/06/29 08:51:58;;;;;;;35.15;20.88;;;;;;;;;;5092397;27;20653;-52
2023/06/29 08:54:31;;;;;;;33.55;21.23;;;;;;;;;;5076280;28;20492;-52
2023/06/29 08:56:58;;;;;;;34.38;21.00;;;;;;;;;;5077534;28;20113;-52
2023/06/29 08:59:25;;;;;;;32.05;21.42;;;;;;;;;;5068985;28;20040;-52
2023/06/29 09:01:51;;;;;;;31.50;19.98;;;;;;;;;;5077263;28;20143;-52
2023/06/29 09:04:18;;;;;;;33.72;18.75;;;;;;;;;;5075455;28;20056;-52
2023/06/29 09:06:44;;;;;;;31.40;19.88;;;;;;;;;;5076733;28;20044;-54
2023/06/29 09:09:10;;;;;;;30.45;20.27;;;;;;;;;;5076989;28;20101;-52
2023/06/29 09:11:36;;;;;;;28.60;19.42;;;;;;;;;;5076690;28;20117;-52
2023/06/29 09:14:05;;;;;;;28.00;20.35;;;;;;;;;;5077129;28;20095;-52
2023/06/29 09:16:31;;;;;;;34.10;20.58;;;;;;;;;;5076642;28;20634;-52
2023/06/29 09:18:58;;;;;;;28.88;18.85;;;;;;;;;;5077383;28;20109;-52
2023/06/29 09:21:28;;;;;;;34.85;19.92;;;;;;;;;;5076957;28;21347;-52
2023/06/29 09:23:55;;;;;;;29.77;19.45;;;;;;;;;;5076483;28;21252;-52
2023/06/29 09:26:24;;;;;;;33.38;19.88;;;;;;;;;;5068966;28;20051;-52
2023/06/29 09:28:50;;;;;;;30.15;21.90;;;;;;;;;;5092700;27;20440;-52
2023/06/29 09:31:16;;;;;;;32.55;20.13;;;;;;;;;;5076621;28;20040;-52
2023/06/29 09:33:42;;;;;;;30.20;21.67;;;;;;;;;;5076794;28;20045;-52
2023/06/29 09:36:08;;;;;;;30.63;21.63;;;;;;;;;;5076331;28;20060;-52
2023/06/29 09:38:34;;;;;;;31.70;21.05;;;;;;;;;;5077238;28;20048;-52
2023/06/29 09:41:02;;;;;;;30.75;20.35;;;;;;;;;;5075889;28;20488;-53
2023/06/29 09:43:31;;;;;;;29.10;19.13;;;;;;;;;;5076549;28;20072;-52
2023/06/29 09:46:07;;;;;;;31.35;19.70;;;;;;;;;;5075986;28;20041;-52
2023/06/29 09:48:33;;;;;;;32.15;21.10;;;;;;;;;;5076676;28;20167;-52
2023/06/29 09:50:59;;;;;;;35.40;19.67;;;;;;;;;;5076075;28;20056;-52
2023/06/29 09:53:32;;;;;;;35.65;20.50;;;;;;;;;;5076498;28;20083;-52
2023/06/29 09:56:02;;;;;;;33.55;22.10;;;;;;;;;;5076451;28;20131;-52
2023/06/29 09:58:29;;;;;;;32.45;19.75;;;;;;;;;;5075979;28;20379;-53
2023/06/29 10:00:58;;;;;;;35.25;21.52;;;;;;;;;;5076773;28;20053;-52
2023/06/29 10:03:26;;;;;;;31.95;21.33;;;;;;;;;;5076612;28;20037;-52
2023/06/29 10:05:56;;;;;;;26.77;18.50;;;;;;;;;;5077064;28;20119;-52
2023/06/29 10:08:22;;;;;;;31.98;19.42;;;;;;;;;;5074644;28;20049;-52
2023/06/29 10:10:52;;;;;;;29.88;19.48;;;;;;;;;;5090640;27;20041;-52
2023/06/29 10:13:19;;;;;;;31.02;20.77;;;;;;;;;;5076224;28;20040;-53
2023/06/29 10:15:46;;;;;;;29.17;19.90;;;;;;;;;;5077021;28;20081;-52
2023/06/29 10:18:14;;;;;;;27.85;19.48;;;;;;;;;;5075609;28;20045;-52
2023/06/29 10:20:43;;;;;;;28.02;18.25;;;;;;;;;;5076224;28;20037;-52
2023/06/29 10:23:10;;;;;;;32.13;20.95;;;;;;;;;;5075490;28;20160;-52
2023/06/29 10:25:37;;;;;;;28.88;20.67;;;;;;;;;;5076350;28;20858;-52
2023/06/29 10:28:04;;;;;;;29.33;18.95;;;;;;;;;;5076105;28;20037;-52
2023/06/29 10:30:30;;;;;;;30.63;21.23;;;;;;;;;;5076631;28;20064;-52
2023/06/29 10:32:58;;;;;;;29.55;18.90;;;;;;;;;;5075507;28;20037;-52
2023/06/29 10:35:27;;;;;;;27.70;18.90;;;;;;;;;;5076209;28;20036;-52
2023/06/29 10:37:57;;;;;;;29.67;20.73;;;;;;;;;;5075683;28;20075;-52
2023/06/29 10:40:28;;;;;;;28.00;18.65;;;;;;;;;;5076620;28;20040;-53
2023/06/29 10:42:55;;;;;;;31.60;21.23;;;;;;;;;;5075594;28;20033;-52
2023/06/29 10:45:21;;;;;;;31.02;19.80;;;;;;;;;;5078877;27;20044;-52
2023/06/29 10:47:56;;;;;;;30.05;19.63;;;;;;;;;;5078786;28;20593;-52
2023/06/29 10:50:24;;;;;;;30.63;20.35;;;;;;;;;;5079400;28;20048;-52
2023/06/29 10:52:50;;;;;;;28.90;18.63;;;;;;;;;;5079251;28;20052;-52
2023/06/29 10:55:22;;;;;;;28.23;19.65;;;;;;;;;;5079583;28;20062;-52
2023/06/29 10:57:48;;;;;;;;;;;;;;;;;;5080376;28;20466;-52
2023/06/29 11:00:14;;;;;;;30.00;18.42;;;;;;;;;;5079533;28;19954;-52
2023/06/29 11:02:44;;;;;;;28.38;19.92;;;;;;;;;;5080560;28;20037;-52
2023/06/29 11:05:14;;;;;;;27.23;19.95;;;;;;;;;;5078716;28;20041;-53
2023/06/29 11:07:41;;;;;;;26.92;18.10;;;;;;;;;;5079353;28;20044;-52
2023/06/29 11:10:07;;;;;;;31.52;20.05;;;;;;;;;;5078919;28;20036;-52
2023/06/29 11:12:33;;;;;;;29.88;19.13;;;;;;;;;;5095730;27;20041;-52
2023/06/29 11:14:59;;;;;;;26.17;17.75;;;;;;;;;;5078120;28;20037;-52
2023/06/29 11:17:26;;;;;;;27.15;19.20;;;;;;;;;;5079561;28;20126;-52
2023/06/29 11:19:52;;;;;;;31.45;19.63;;;;;;;;;;5078695;28;20036;-52
2023/06/29 11:22:19;;;;;;;29.25;19.38;;;;;;;;;;5079029;28;20040;-52
2023/06/29 11:24:45;;;;;;;25.45;19.15;;;;;;;;;;5078364;28;20363;-52
2023/06/29 11:27:11;;;;;;;28.60;18.10;;;;;;;;;;5078590;28;20484;-52
2023/06/29 11:29:41;;;;;;;22.77;14.27;;;;;;;;;;5078610;28;21355;-52
2023/06/29 11:32:10;;;;;;;23.40;16.00;;;;;;;;;;5079273;28;20582;-52
2023/06/29 11:34:36;;;;;;;24.35;16.00;;;;;;;;;;5077874;28;20060;-52
2023/06/29 11:37:02;;;;;;;22.42;16.00;;;;;;;;;;5078986;28;20041;-52
2023/06/29 11:39:30;;;;;;;23.17;16.75;;;;;;;;;;5078214;28;20037;-52
2023/06/29 11:41:56;;;;;;;25.60;16.05;;;;;;;;;;5079559;28;20033;-52
2023/06/29 11:44:23;;;;;;;25.42;17.10;;;;;;;;;;5078865;28;20116;-52
2023/06/29 11:46:49;;;;;;;24.98;17.13;;;;;;;;;;5078983;27;20495;-52
2023/06/29 11:49:18;;;;;;;28.15;17.63;;;;;;;;;;5078045;28;20051;-52
2023/06/29 11:51:45;;;;;;;25.92;17.90;;;;;;;;;;5078996;28;20037;-52
2023/06/29 11:54:11;;;;;;;24.80;17.42;;;;;;;;;;5078102;28;20044;-52
2023/06/29 11:56:38;;;;;;;20.92;14.63;;;;;;;;;;5078168;28;20148;-52
2023/06/29 11:59:15;;;;;;;24.92;16.77;;;;;;;;;;5077842;28;20048;-52
2023/06/29 12:01:41;;;;;;;22.50;15.48;;;;;;;;;;5078034;28;20504;-52
2023/06/29 12:04:14;;;;;;;23.60;16.90;;;;;;;;;;5078523;28;20601;-52
2023/06/29 12:06:53;;;;;;;25.17;16.75;;;;;;;;;;5078069;27;20091;-52
2023/06/29 12:09:20;;;;;;;26.85;15.73;;;;;;;;;;5093848;27;20078;-52
2023/06/29 12:11:55;;;;;;;23.42;16.83;;;;;;;;;;5077798;28;20576;-52
2023/06/29 12:14:21;;;;;;;21.77;13.95;;;;;;;;;;5077785;28;20063;-52
2023/06/29 12:16:50;;;;;;;17.92;13.80;;;;;;;;;;5077684;28;20250;-52
2023/06/29 12:19:16;;;;;;;19.83;13.52;;;;;;;;;;5077851;27;20114;-52
2023/06/29 12:21:43;;;;;;;18.77;13.70;;;;;;;;;;5078356;28;20111;-52
2023/06/29 12:24:09;;;;;;;17.92;13.40;;;;;;;;;;5078040;28;20072;-52
2023/06/29 12:26:35;;;;;;;18.25;12.50;;;;;;;;;;5077862;28;20444;-52
2023/06/29 12:29:01;;;;;;;16.63;12.02;;;;;;;;;;5079070;28;20044;-52
2023/06/29 12:31:30;;;;;;;17.88;11.90;;;;;;;;;;5078002;28;20028;-54
2023/06/29 12:33:56;;;;;;;21.58;14.50;;;;;;;;;;5078770;28;20662;-52
2023/06/29 12:36:22;;;;;;;22.48;13.73;;;;;;;;;;5078242;28;20109;-52
2023/06/29 12:38:48;;;;;;;18.00;13.68;;;;;;;;;;5078484;28;20040;-53
2023/06/29 12:41:15;;;;;;;19.17;13.00;;;;;;;;;;5077336;28;20039;-52
2023/06/29 12:43:41;;;;;;;21.30;14.15;;;;;;;;;;5078945;28;20449;-52
2023/06/29 12:46:11;;;;;;;23.00;13.52;;;;;;;;;;5077164;28;20055;-52
2023/06/29 12:48:37;;;;;;;24.02;13.75;;;;;;;;;;5077858;28;20128;-52
2023/06/29 12:51:03;;;;;;;22.85;13.43;;;;;;;;;;5077561;28;20543;-52
2023/06/29 12:53:32;;;;;;;19.90;13.40;;;;;;;;;;5077473;28;20053;-52
2023/06/29 12:55:58;;;;;;;19.67;13.48;;;;;;;;;;5077558;28;20047;-52
2023/06/29 12:58:24;;;;;;;19.50;12.95;;;;;;;;;;5077649;28;20044;-52
2023/06/29 13:00:51;;;;;;;21.33;12.52;;;;;;;;;;5076428;28;20060;-52
2023/06/29 13:03:17;;;;;;;21.45;13.15;;;;;;;;;;5076157;28;20124;-52
2023/06/29 13:05:44;;;;;;;20.20;12.43;;;;;;;;;;5076504;28;20064;-52
2023/06/29 13:08:14;;;;;;;19.60;14.18;;;;;;;;;;5076528;28;20111;-53
2023/06/29 13:10:40;;;;;;;21.45;13.10;;;;;;;;;;5077347;28;20489;-52
2023/06/29 13:13:06;;;;;;;20.10;14.50;;;;;;;;;;5076820;28;20048;-52
2023/06/29 13:15:32;;;;;;;19.08;13.50;;;;;;;;;;5076776;28;20047;-52
2023/06/29 13:17:58;;;;;;;21.52;14.77;;;;;;;;;;5077577;28;20067;-52
2023/06/29 13:20:24;;;;;;;20.58;14.30;;;;;;;;;;5077635;28;20094;-52
2023/06/29 13:22:51;;;;;;;20.40;13.55;;;;;;;;;;5077098;28;20125;-52
2023/06/29 13:25:17;;;;;;;19.17;12.85;;;;;;;;;;5076115;28;20603;-52
2023/06/29 13:27:43;;;;;;;17.35;12.32;;;;;;;;;;5077314;28;20040;-52
2023/06/29 13:30:10;;;;;;;21.80;11.43;;;;;;;;;;5076597;28;20086;-52
2023/06/29 13:32:36;;;;;;;17.25;10.75;;;;;;;;;;5077180;28;20543;-52
2023/06/29 13:35:02;;;;;;;18.65;11.82;;;;;;;;;;5076898;28;20048;-52
2023/06/29 13:37:28;;;;;;;20.08;13.05;;;;;;;;;;5076603;28;20045;-52
2023/06/29 13:39:55;;;;;;;18.13;14.23;;;;;;;;;;5076872;28;20128;-52
2023/06/29 13:42:21;;;;;;;22.05;13.63;;;;;;;;;;5075816;28;20040;-52
2023/06/29 13:44:47;;;;;;;18.77;12.65;;;;;;;;;;5076380;28;20041;-52
2023/06/29 13:47:18;;;;;;;18.30;11.80;;;;;;;;;;5075372;28;20525;-52
2023/06/29 13:49:44;;;;;;;17.88;12.70;;;;;;;;;;5077594;28;20032;-52
2023/06/29 13:52:10;;;;;;;19.98;12.63;;;;;;;;;;5091977;27;20983;-53
2023/06/29 13:54:36;;;;;;;17.75;12.30;;;;;;;;;;5077586;28;20693;-52
2023/06/29 13:57:03;;;;;;;18.42;12.77;;;;;;;;;;5077395;28;20189;-52
2023/06/29 13:59:29;;;;;;;18.50;11.88;;;;;;;;;;5077084;28;20052;-52
2023/06/29 14:01:55;;;;;;;20.33;10.38;;;;;;;;;;5077137;28;20045;-52
2023/06/29 14:04:22;;;;;;;21.23;12.02;;;;;;;;;;5077242;28;20543;-52
2023/06/29 14:06:48;;;;;;;22.02;11.07;;;;;;;;;;5076063;28;21326;-52
2023/06/29 14:09:14;;;;;;;17.98;12.05;;;;;;;;;;5076872;28;20528;-52
2023/06/29 14:11:40;;;;;;;17.38;12.43;;;;;;;;;;5076450;28;20037;-52
2023/06/29 14:14:06;;;;;;;18.20;12.30;;;;;;;;;;5091854;27;20045;-52
2023/06/29 14:16:33;;;;;;;18.65;12.07;;;;;;;;;;5075318;28;20113;-52